createdAt,value
2019-06-07T00:00:37.494Z,0.00
2019-06-07T00:01:25.396Z,0.00
2019-06-07T00:02:24.383Z,0.00
2019-06-07T00:03:29.737Z,0.00
2019-06-07T00:04:25.383Z,0.00
2019-06-07T00:05:24.344Z,0.00
2019-06-07T00:06:25.813Z,0.00
2019-06-07T00:07:24.323Z,0.00
2019-06-07T00:08:28.440Z,0.00
2019-06-07T00:09:24.298Z,0.00
2019-06-07T00:10:36.209Z,0.00
2019-06-07T00:11:25.278Z,0.00
2019-06-07T00:12:24.288Z,0.00
2019-06-07T00:13:24.257Z,0.00
2019-06-07T00:14:24.255Z,0.00
2019-06-07T00:15:28.675Z,0.00
2019-06-07T00:16:25.226Z,0.00
2019-06-07T00:17:24.226Z,0.00
2019-06-07T00:18:26.123Z,0.00
2019-06-07T00:19:24.198Z,0.00
2019-06-07T00:20:24.183Z,0.00
2019-06-07T00:22:12.359Z,0.00
2019-06-07T00:22:32.957Z,0.00
2019-06-07T00:23:25.139Z,0.00
2019-06-07T00:24:24.156Z,0.00
2019-06-07T00:25:24.699Z,0.00
2019-06-07T00:26:24.124Z,0.00
2019-06-07T00:27:24.133Z,0.00
2019-06-07T00:28:24.111Z,0.00
2019-06-07T00:29:24.131Z,0.00
2019-06-07T00:30:44.447Z,0.00
2019-06-07T00:31:25.050Z,0.00
2019-06-07T00:32:24.052Z,0.00
2019-06-07T00:33:25.106Z,0.00
2019-06-07T00:34:25.069Z,0.00
2019-06-07T00:35:24.009Z,0.00
2019-06-07T00:36:24.005Z,0.00
2019-06-07T00:37:25.623Z,0.00
2019-06-07T00:38:23.977Z,0.00
2019-06-07T00:39:25.838Z,0.00
2019-06-07T00:40:31.492Z,0.00
2019-06-07T00:41:24.938Z,0.00
2019-06-07T00:42:24.464Z,0.00
2019-06-07T00:43:28.211Z,0.00
2019-06-07T00:44:23.920Z,0.00
2019-06-07T00:45:24.657Z,0.00
2019-06-07T00:46:25.453Z,0.00
2019-06-07T00:47:25.795Z,0.00
2019-06-07T00:48:31.793Z,0.00
2019-06-07T00:49:40.142Z,0.00
2019-06-07T00:50:24.852Z,0.00
2019-06-07T00:51:24.050Z,0.00
2019-06-07T00:53:12.400Z,0.00
2019-06-07T00:53:31.747Z,0.00
2019-06-07T00:54:25.252Z,0.00
2019-06-07T00:55:27.546Z,0.00
2019-06-07T00:56:23.774Z,0.00
2019-06-07T00:57:24.444Z,0.00
2019-06-07T00:58:27.618Z,0.00
2019-06-07T00:59:29.262Z,0.00
2019-06-07T01:00:25.523Z,0.00
2019-06-07T01:01:25.505Z,0.00
2019-06-07T01:02:28.224Z,0.00
2019-06-07T01:03:25.885Z,0.00
2019-06-07T01:04:26.462Z,0.00
2019-06-07T01:05:31.147Z,0.00
2019-06-07T01:06:25.037Z,0.00
2019-06-07T01:07:24.464Z,0.00
2019-06-07T01:08:27.710Z,0.00
2019-06-07T01:09:25.491Z,0.00
2019-06-07T01:10:51.614Z,0.00
2019-06-07T01:11:26.148Z,0.00
2019-06-07T01:12:26.656Z,0.00
2019-06-07T01:13:26.564Z,0.00
2019-06-07T01:14:27.579Z,0.00
2019-06-07T01:15:28.552Z,0.00
2019-06-07T01:16:26.284Z,0.00
2019-06-07T01:17:39.872Z,0.00
2019-06-07T01:18:46.187Z,0.00
2019-06-07T01:19:27.589Z,0.00
2019-06-07T01:20:24.816Z,0.00
2019-06-07T01:21:28.262Z,0.00
2019-06-07T01:22:29.060Z,0.00
2019-06-07T01:24:01.401Z,0.00
2019-06-07T01:24:25.820Z,0.00
2019-06-07T01:25:26.245Z,0.00
2019-06-07T01:26:26.674Z,0.00
2019-06-07T01:27:25.435Z,0.00
2019-06-07T01:28:26.355Z,0.00
2019-06-07T01:29:24.987Z,0.00
2019-06-07T01:30:26.482Z,0.00
2019-06-07T01:31:27.554Z,0.00
2019-06-07T01:32:27.103Z,0.00
2019-06-07T01:33:26.726Z,0.00
2019-06-07T01:34:26.550Z,0.00
2019-06-07T01:35:23.915Z,0.00
2019-06-07T01:36:25.250Z,0.00
2019-06-07T01:37:27.761Z,0.00
2019-06-07T01:38:24.954Z,0.00
2019-06-07T01:39:24.721Z,0.00
2019-06-07T01:40:30.441Z,0.00
2019-06-07T01:41:25.912Z,0.00
2019-06-07T01:42:25.319Z,0.00
2019-06-07T01:43:27.086Z,0.00
2019-06-07T01:44:27.357Z,0.00
2019-06-07T01:45:23.753Z,0.00
2019-06-07T01:46:26.631Z,0.00
2019-06-07T01:47:25.581Z,0.00
2019-06-07T01:48:29.557Z,0.00
2019-06-07T01:49:26.606Z,0.00
2019-06-07T01:50:25.368Z,0.00
2019-06-07T01:51:24.421Z,0.00
2019-06-07T01:52:24.778Z,0.00
2019-06-07T01:53:25.755Z,0.00
2019-06-07T01:55:27.299Z,0.00
2019-06-07T01:56:26.508Z,0.00
2019-06-07T01:57:39.765Z,0.00
2019-06-07T01:58:27.221Z,0.00
2019-06-07T01:59:24.834Z,0.00
2019-06-07T02:00:24.139Z,0.00
2019-06-07T02:01:23.977Z,0.00
2019-06-07T02:02:25.669Z,0.00
2019-06-07T02:03:28.030Z,0.00
2019-06-07T02:04:27.339Z,0.00
2019-06-07T02:05:25.930Z,0.00
2019-06-07T02:06:27.974Z,0.00
2019-06-07T02:07:27.233Z,0.00
2019-06-07T02:08:26.500Z,0.00
2019-06-07T02:09:23.507Z,0.00
2019-06-07T02:10:26.114Z,0.00
2019-06-07T02:11:24.295Z,0.00
2019-06-07T02:12:28.107Z,0.00
2019-06-07T02:13:27.420Z,0.00
2019-06-07T02:14:25.738Z,0.00
2019-06-07T02:15:27.550Z,0.00
2019-06-07T02:16:32.612Z,0.00
2019-06-07T02:17:26.265Z,0.00
2019-06-07T02:18:23.818Z,0.00
2019-06-07T02:19:24.268Z,0.00
2019-06-07T02:20:23.833Z,0.00
2019-06-07T02:21:25.739Z,0.00
2019-06-07T02:22:23.619Z,0.00
2019-06-07T02:23:24.031Z,0.00
2019-06-07T02:24:25.291Z,0.00
2019-06-07T02:25:48.701Z,0.00
2019-06-07T02:26:25.415Z,0.00
2019-06-07T02:27:24.632Z,0.00
2019-06-07T02:28:32.053Z,0.00
2019-06-07T02:29:25.441Z,0.00
2019-06-07T02:30:40.357Z,0.00
2019-06-07T02:31:25.233Z,0.00
2019-06-07T02:32:25.091Z,0.00
2019-06-07T02:33:27.902Z,0.00
2019-06-07T02:34:24.913Z,0.00
2019-06-07T02:35:26.379Z,0.00
2019-06-07T02:36:28.773Z,0.00
2019-06-07T02:37:26.305Z,0.00
2019-06-07T02:38:25.583Z,0.00
2019-06-07T02:39:26.188Z,0.00
2019-06-07T02:40:24.547Z,0.00
2019-06-07T02:41:26.228Z,0.00
2019-06-07T02:42:26.167Z,0.00
2019-06-07T02:43:25.031Z,0.00
2019-06-07T02:44:23.998Z,0.00
2019-06-07T02:45:24.794Z,0.00
2019-06-07T02:46:30.492Z,0.00
2019-06-07T02:47:25.327Z,0.00
2019-06-07T02:48:24.525Z,0.00
2019-06-07T02:49:25.312Z,0.00
2019-06-07T02:50:25.591Z,0.00
2019-06-07T02:51:26.528Z,0.00
2019-06-07T02:52:27.197Z,0.00
2019-06-07T02:53:25.638Z,0.00
2019-06-07T02:54:23.968Z,0.00
2019-06-07T02:55:24.866Z,0.00
2019-06-07T02:56:53.939Z,0.00
2019-06-07T02:57:25.714Z,5.62
2019-06-07T02:58:25.060Z,5.62
2019-06-07T02:59:52.779Z,5.62
2019-06-07T03:01:24.910Z,5.62
2019-06-07T03:02:22.396Z,5.62
2019-06-07T03:03:22.684Z,5.62
2019-06-07T03:04:22.371Z,11.25
2019-06-07T03:05:22.348Z,11.25
2019-06-07T03:06:22.334Z,11.25
2019-06-07T03:07:22.366Z,11.25
2019-06-07T03:08:22.314Z,16.88
2019-06-07T03:09:22.333Z,16.88
2019-06-07T03:10:22.296Z,16.88
2019-06-07T03:11:22.279Z,16.88
2019-06-07T03:12:22.269Z,22.50
2019-06-07T03:13:22.272Z,22.50
2019-06-07T03:14:22.258Z,22.50
2019-06-07T03:15:35.299Z,28.12
2019-06-07T03:16:23.226Z,28.12
2019-06-07T03:17:22.212Z,28.12
2019-06-07T03:18:22.218Z,33.75
2019-06-07T03:19:22.196Z,33.75
2019-06-07T03:20:22.565Z,33.75
2019-06-07T03:21:22.172Z,39.38
2019-06-07T03:22:22.156Z,39.38
2019-06-07T03:23:22.181Z,45.00
2019-06-07T03:24:22.136Z,45.00
2019-06-07T03:25:22.123Z,50.62
2019-06-07T03:26:22.122Z,50.62
2019-06-07T03:27:34.316Z,56.25
2019-06-07T03:28:23.108Z,56.25
2019-06-07T03:29:22.079Z,61.88
2019-06-07T03:30:38.360Z,61.88
2019-06-07T03:31:23.060Z,67.50
2019-06-07T03:32:22.051Z,67.50
2019-06-07T03:33:22.036Z,73.12
2019-06-07T03:34:22.043Z,78.75
2019-06-07T03:35:22.017Z,78.75
2019-06-07T03:36:25.557Z,84.38
2019-06-07T03:37:21.993Z,90.00
2019-06-07T03:38:21.979Z,90.00
2019-06-07T03:39:21.999Z,95.62
2019-06-07T03:40:21.961Z,95.62
2019-06-07T03:41:21.954Z,101.25
2019-06-07T03:42:21.937Z,106.88
2019-06-07T03:43:21.925Z,118.12
2019-06-07T03:44:21.924Z,112.50
2019-06-07T03:45:21.919Z,118.12
2019-06-07T03:46:21.905Z,123.75
2019-06-07T03:47:21.880Z,129.38
2019-06-07T03:48:21.869Z,135.00
2019-06-07T03:49:21.866Z,146.25
2019-06-07T03:50:21.870Z,151.88
2019-06-07T03:51:25.152Z,157.50
2019-06-07T03:52:22.833Z,163.12
2019-06-07T03:53:21.819Z,168.75
2019-06-07T03:54:21.812Z,168.75
2019-06-07T03:55:21.814Z,174.38
2019-06-07T03:56:21.791Z,180.00
2019-06-07T03:57:21.786Z,185.62
2019-06-07T03:58:48.627Z,191.25
2019-06-07T03:59:22.792Z,196.88
2019-06-07T04:00:21.749Z,202.50
2019-06-07T04:01:21.740Z,208.12
2019-06-07T04:02:21.721Z,208.12
2019-06-07T04:03:33.359Z,213.75
2019-06-07T04:04:22.703Z,219.38
2019-06-07T04:05:21.695Z,225.00
2019-06-07T04:06:21.673Z,236.25
2019-06-07T04:07:21.661Z,241.88
2019-06-07T04:08:21.659Z,253.12
2019-06-07T04:09:21.672Z,264.38
2019-06-07T04:10:44.774Z,270.00
2019-06-07T04:11:22.625Z,281.25
2019-06-07T04:12:21.608Z,286.88
2019-06-07T04:13:21.601Z,292.50
2019-06-07T04:14:21.581Z,298.12
2019-06-07T04:15:21.571Z,303.75
2019-06-07T04:16:21.575Z,315.00
2019-06-07T04:17:21.564Z,326.25
2019-06-07T04:18:21.544Z,348.75
2019-06-07T04:19:21.528Z,376.88
2019-06-07T04:20:21.540Z,410.62
2019-06-07T04:21:21.514Z,438.75
2019-06-07T04:22:21.517Z,450.00
2019-06-07T04:23:28.237Z,455.62
2019-06-07T04:24:22.467Z,455.62
2019-06-07T04:25:21.491Z,461.25
2019-06-07T04:26:21.456Z,472.50
2019-06-07T04:27:21.435Z,489.38
2019-06-07T04:28:21.438Z,511.88
2019-06-07T04:30:02.097Z,551.25
2019-06-07T04:30:22.404Z,573.75
2019-06-07T04:31:22.224Z,601.88
2019-06-07T04:32:21.398Z,635.62
2019-06-07T04:33:21.391Z,596.25
2019-06-07T04:34:21.363Z,742.50
2019-06-07T04:35:21.348Z,731.25
2019-06-07T04:36:39.494Z,691.88
2019-06-07T04:37:22.320Z,658.12
2019-06-07T04:38:21.329Z,691.88
2019-06-07T04:39:21.331Z,708.75
2019-06-07T04:40:21.292Z,742.50
2019-06-07T04:41:21.281Z,725.62
2019-06-07T04:42:21.273Z,736.88
2019-06-07T04:43:21.292Z,748.12
2019-06-07T04:44:21.263Z,753.75
2019-06-07T04:45:33.638Z,720.00
2019-06-07T04:46:22.230Z,686.25
2019-06-07T04:47:21.236Z,725.62
2019-06-07T04:48:21.203Z,703.12
2019-06-07T04:49:21.189Z,646.88
2019-06-07T04:50:21.214Z,646.88
2019-06-07T04:51:21.186Z,691.88
2019-06-07T04:52:21.158Z,686.25
2019-06-07T04:53:21.178Z,680.62
2019-06-07T04:54:21.136Z,697.50
2019-06-07T04:55:21.138Z,708.75
2019-06-07T04:56:21.112Z,720.00
2019-06-07T04:57:21.101Z,725.62
2019-06-07T04:58:21.091Z,714.38
2019-06-07T05:00:01.038Z,731.25
2019-06-07T05:00:48.996Z,748.12
2019-06-07T05:01:27.707Z,759.38
2019-06-07T05:02:22.071Z,765.00
2019-06-07T05:03:21.036Z,765.00
2019-06-07T05:04:21.057Z,793.12
2019-06-07T05:05:21.017Z,838.12
2019-06-07T05:06:21.038Z,849.38
2019-06-07T05:07:20.993Z,826.88
2019-06-07T05:08:27.972Z,832.50
2019-06-07T05:09:21.976Z,843.75
2019-06-07T05:10:20.956Z,849.38
2019-06-07T05:11:20.945Z,860.62
2019-06-07T05:12:20.931Z,855.00
2019-06-07T05:13:20.921Z,883.12
2019-06-07T05:14:20.926Z,894.38
2019-06-07T05:15:20.912Z,905.62
2019-06-07T05:16:20.943Z,916.88
2019-06-07T05:17:20.977Z,945.00
2019-06-07T05:18:20.876Z,950.62
2019-06-07T05:19:20.862Z,1012.50
2019-06-07T05:20:20.850Z,1006.88
2019-06-07T05:21:20.847Z,978.75
2019-06-07T05:22:20.825Z,1006.88
2019-06-07T05:24:00.137Z,1091.25
2019-06-07T05:24:21.799Z,1125.00
2019-06-07T05:25:20.792Z,1063.12
2019-06-07T05:26:20.797Z,1141.88
2019-06-07T05:27:20.783Z,1141.88
2019-06-07T05:28:20.759Z,1181.25
2019-06-07T05:29:20.763Z,1260.00
2019-06-07T05:30:59.731Z,1355.62
2019-06-07T05:31:21.730Z,1428.75
2019-06-07T05:32:20.724Z,1389.38
2019-06-07T05:33:20.701Z,1333.12
2019-06-07T05:34:20.690Z,1327.50
2019-06-07T05:35:20.756Z,1569.38
2019-06-07T05:36:20.667Z,1749.38
2019-06-07T05:37:20.668Z,1783.12
2019-06-07T05:38:20.653Z,1698.75
2019-06-07T05:39:20.668Z,1485.00
2019-06-07T05:40:21.386Z,1260.00
2019-06-07T05:41:20.614Z,1181.25
2019-06-07T05:42:20.615Z,1147.50
2019-06-07T05:43:20.590Z,1125.00
2019-06-07T05:44:20.580Z,1113.75
2019-06-07T05:45:20.569Z,1113.75
2019-06-07T05:46:20.557Z,1096.88
2019-06-07T05:47:20.584Z,1091.25
2019-06-07T05:48:20.542Z,1018.12
2019-06-07T05:49:20.555Z,928.12
2019-06-07T05:50:39.093Z,826.88
2019-06-07T05:51:21.500Z,776.25
2019-06-07T05:52:20.497Z,770.62
2019-06-07T05:53:20.506Z,843.75
2019-06-07T05:54:20.466Z,871.88
2019-06-07T05:55:20.455Z,900.00
2019-06-07T05:56:20.451Z,933.75
2019-06-07T05:57:20.437Z,984.38
2019-06-07T05:58:20.442Z,1012.50
2019-06-07T05:59:20.413Z,1006.88
2019-06-07T06:00:20.412Z,1080.00
2019-06-07T06:01:43.055Z,1293.75
2019-06-07T06:02:24.609Z,1710.00
2019-06-07T06:03:20.381Z,1845.00
2019-06-07T06:04:20.360Z,1890.00
2019-06-07T06:05:33.757Z,1901.25
2019-06-07T06:06:21.334Z,1822.50
2019-06-07T06:07:20.340Z,1665.00
2019-06-07T06:08:20.325Z,1856.25
2019-06-07T06:09:20.318Z,2030.62
2019-06-07T06:10:20.291Z,2058.75
2019-06-07T06:11:20.280Z,2154.38
2019-06-07T06:12:33.814Z,2148.75
2019-06-07T06:13:21.283Z,2137.50
2019-06-07T06:14:20.267Z,2148.75
2019-06-07T06:15:38.463Z,2238.75
2019-06-07T06:16:21.233Z,2272.50
2019-06-07T06:17:20.212Z,2244.38
2019-06-07T06:18:20.205Z,2283.75
2019-06-07T06:19:20.204Z,2295.00
2019-06-07T06:20:20.188Z,2323.12
2019-06-07T06:21:20.645Z,2255.62
2019-06-07T06:22:20.166Z,2340.00
2019-06-07T06:23:20.148Z,2542.50
2019-06-07T06:24:20.169Z,2486.25
2019-06-07T06:25:37.543Z,2508.75
2019-06-07T06:26:21.114Z,2514.38
2019-06-07T06:28:02.664Z,2615.62
2019-06-07T06:28:21.091Z,2593.12
2019-06-07T06:29:20.084Z,2626.88
2019-06-07T06:30:20.102Z,2559.38
2019-06-07T06:31:20.067Z,2598.75
2019-06-07T06:33:33.689Z,2430.00
2019-06-07T06:34:21.027Z,2536.88
2019-06-07T06:35:20.018Z,2666.25
2019-06-07T06:36:20.486Z,2626.88
2019-06-07T06:37:19.997Z,2700.00
2019-06-07T06:38:19.986Z,2756.25
2019-06-07T06:39:19.975Z,2677.50
2019-06-07T06:40:19.961Z,2446.88
2019-06-07T06:41:21.104Z,2193.75
2019-06-07T06:42:19.948Z,2407.50
2019-06-07T06:43:19.935Z,2722.50
2019-06-07T06:44:19.917Z,2874.38
2019-06-07T06:45:19.920Z,3043.12
2019-06-07T06:46:37.398Z,3127.50
2019-06-07T06:47:20.884Z,3026.25
2019-06-07T06:48:19.881Z,2863.12
2019-06-07T06:49:19.867Z,3088.12
2019-06-07T06:50:19.868Z,3060.00
2019-06-07T06:51:19.858Z,3251.25
2019-06-07T06:52:19.849Z,3251.25
2019-06-07T06:53:19.821Z,3228.75
2019-06-07T06:54:39.404Z,3037.50
2019-06-07T06:55:20.815Z,3262.50
2019-06-07T06:56:19.797Z,3048.75
2019-06-07T06:57:20.390Z,2851.88
2019-06-07T06:58:19.768Z,2970.00
2019-06-07T06:59:38.063Z,3166.88
2019-06-07T07:00:20.744Z,3127.50
2019-06-07T07:01:19.744Z,2981.25
2019-06-07T07:02:19.722Z,2874.38
2019-06-07T07:04:20.714Z,2396.25
2019-06-07T07:05:19.698Z,2767.50
2019-06-07T07:06:26.539Z,2475.00
2019-06-07T07:07:20.688Z,2868.75
2019-06-07T07:08:19.657Z,2587.50
2019-06-07T07:09:19.699Z,3616.88
2019-06-07T07:10:19.677Z,3729.38
2019-06-07T07:11:23.143Z,3819.38
2019-06-07T07:12:19.621Z,3971.25
2019-06-07T07:13:19.623Z,3712.50
2019-06-07T07:14:19.666Z,3892.50
2019-06-07T07:15:19.589Z,3459.38
2019-06-07T07:16:19.576Z,2874.38
2019-06-07T07:17:19.578Z,3127.50
2019-06-07T07:18:19.553Z,2964.38
2019-06-07T07:19:19.542Z,3436.88
2019-06-07T07:20:19.533Z,3684.38
2019-06-07T07:21:19.519Z,2941.88
2019-06-07T07:22:19.529Z,2700.00
2019-06-07T07:23:19.504Z,3048.75
2019-06-07T07:24:22.042Z,3318.75
2019-06-07T07:25:19.477Z,3886.88
2019-06-07T07:26:19.466Z,3830.62
2019-06-07T07:27:19.487Z,3757.50
2019-06-07T07:28:19.444Z,4117.50
2019-06-07T07:29:19.443Z,4021.88
2019-06-07T07:30:37.108Z,3836.25
2019-06-07T07:31:20.409Z,2863.12
2019-06-07T07:32:19.411Z,3560.62
2019-06-07T07:33:19.415Z,2885.62
2019-06-07T07:34:33.850Z,3605.62
2019-06-07T07:35:20.373Z,3510.00
2019-06-07T07:36:38.215Z,3639.38
2019-06-07T07:37:20.347Z,2970.00
2019-06-07T07:38:19.342Z,3206.25
2019-06-07T07:39:19.339Z,3088.12
2019-06-07T07:40:56.247Z,3420.00
2019-06-07T07:41:20.311Z,3054.38
2019-06-07T07:42:21.615Z,2745.00
2019-06-07T07:43:19.294Z,3200.62
2019-06-07T07:44:19.286Z,2840.62
2019-06-07T07:45:19.263Z,2615.62
2019-06-07T07:46:29.225Z,2947.50
2019-06-07T07:47:20.240Z,2632.50
2019-06-07T07:48:19.258Z,2356.88
2019-06-07T07:49:19.218Z,2424.38
2019-06-07T07:50:19.217Z,1890.00
2019-06-07T07:51:19.231Z,1935.00
2019-06-07T07:52:19.194Z,2013.75
2019-06-07T07:53:19.176Z,2475.00
2019-06-07T07:54:19.180Z,2638.12
2019-06-07T07:55:19.213Z,2120.62
2019-06-07T07:56:19.145Z,2418.75
2019-06-07T07:57:19.139Z,2576.25
2019-06-07T07:58:19.146Z,2896.88
2019-06-07T07:59:19.113Z,3476.25
2019-06-07T08:00:50.200Z,3746.25
2019-06-07T08:01:20.085Z,4550.62
2019-06-07T08:02:19.079Z,4033.12
2019-06-07T08:03:19.087Z,3510.00
2019-06-07T08:04:29.237Z,3476.25
2019-06-07T08:05:33.542Z,3273.75
2019-06-07T08:06:20.033Z,3105.00
2019-06-07T08:07:19.041Z,3262.50
2019-06-07T08:08:19.050Z,3279.38
2019-06-07T08:09:19.005Z,3386.25
2019-06-07T08:10:19.016Z,3346.88
2019-06-07T08:11:18.979Z,3898.12
2019-06-07T08:12:18.977Z,4297.50
2019-06-07T08:13:25.968Z,4201.88
2019-06-07T08:14:19.974Z,4348.12
2019-06-07T08:15:18.947Z,4365.00
2019-06-07T08:16:19.172Z,4421.25
2019-06-07T08:17:18.923Z,4483.12
2019-06-07T08:18:18.916Z,4415.62
2019-06-07T08:19:18.898Z,4106.25
2019-06-07T08:20:18.903Z,4190.62
2019-06-07T08:21:25.979Z,3234.38
2019-06-07T08:22:19.864Z,3909.38
2019-06-07T08:23:18.852Z,4410.00
2019-06-07T08:24:18.848Z,4747.50
2019-06-07T08:25:18.883Z,4843.12
2019-06-07T08:26:18.824Z,4415.62
2019-06-07T08:27:26.512Z,4747.50
2019-06-07T08:28:19.804Z,5180.62
2019-06-07T08:29:18.798Z,4297.50
2019-06-07T08:30:48.182Z,5056.88
2019-06-07T08:31:19.767Z,4713.75
2019-06-07T08:32:18.754Z,4876.88
2019-06-07T08:33:26.487Z,4843.12
2019-06-07T08:34:19.762Z,4758.75
2019-06-07T08:36:03.205Z,4410.00
2019-06-07T08:36:29.738Z,4680.00
2019-06-07T08:37:19.703Z,4696.88
2019-06-07T08:38:27.638Z,4545.00
2019-06-07T08:39:19.682Z,4590.00
2019-06-07T08:40:18.723Z,4871.25
2019-06-07T08:41:18.667Z,4910.62
2019-06-07T08:42:21.928Z,4651.88
2019-06-07T08:43:20.963Z,4573.12
2019-06-07T08:44:23.805Z,4747.50
2019-06-07T08:45:19.640Z,4708.12
2019-06-07T08:46:18.630Z,4820.62
2019-06-07T08:47:20.903Z,4933.12
2019-06-07T08:48:27.829Z,4978.12
2019-06-07T08:49:19.581Z,5034.38
2019-06-07T08:50:20.700Z,5135.62
2019-06-07T08:51:18.558Z,4978.12
2019-06-07T08:52:18.555Z,5163.75
2019-06-07T08:53:18.544Z,5068.12
2019-06-07T08:54:22.979Z,4815.00
2019-06-07T08:55:18.549Z,4831.88
2019-06-07T08:56:18.726Z,5079.38
2019-06-07T08:57:21.646Z,5366.25
2019-06-07T08:58:18.489Z,5287.50
2019-06-07T08:59:18.492Z,5315.62
2019-06-07T09:00:43.002Z,5242.50
2019-06-07T09:01:19.474Z,4809.38
2019-06-07T09:02:23.928Z,4798.12
2019-06-07T09:03:19.462Z,5310.00
2019-06-07T09:04:18.628Z,5540.62
2019-06-07T09:05:18.417Z,5613.75
2019-06-07T09:07:01.308Z,5433.75
2019-06-07T09:07:21.849Z,5208.75
2019-06-07T09:08:29.782Z,5270.62
2019-06-07T09:09:19.407Z,5405.62
2019-06-07T09:10:18.366Z,5456.25
2019-06-07T09:11:18.390Z,5591.25
2019-06-07T09:12:18.354Z,4404.38
2019-06-07T09:13:18.338Z,5220.00
2019-06-07T09:14:18.325Z,5304.38
2019-06-07T09:15:23.515Z,5338.12
2019-06-07T09:16:19.317Z,5405.62
2019-06-07T09:17:18.295Z,5568.75
2019-06-07T09:18:45.752Z,5731.88
2019-06-07T09:19:19.304Z,5445.00
2019-06-07T09:20:35.783Z,5445.00
2019-06-07T09:21:19.262Z,5670.00
2019-06-07T09:22:18.259Z,5816.25
2019-06-07T09:23:18.248Z,5760.00
2019-06-07T09:24:18.235Z,5731.88
2019-06-07T09:25:21.886Z,5686.88
2019-06-07T09:26:19.070Z,5748.75
2019-06-07T09:27:18.197Z,5664.38
2019-06-07T09:28:20.317Z,5619.38
2019-06-07T09:29:18.183Z,5866.88
2019-06-07T09:30:19.008Z,5900.62
2019-06-07T09:31:18.192Z,5731.88
2019-06-07T09:32:18.758Z,5580.00
2019-06-07T09:33:18.179Z,5169.38
2019-06-07T09:34:18.128Z,5056.88
2019-06-07T09:35:18.118Z,5265.00
2019-06-07T09:36:18.114Z,5495.62
2019-06-07T09:38:25.453Z,5349.38
2019-06-07T09:39:19.078Z,5214.38
2019-06-07T09:40:27.091Z,5495.62
2019-06-07T09:41:19.052Z,5619.38
2019-06-07T09:42:18.059Z,5411.25
2019-06-07T09:44:00.173Z,5118.75
2019-06-07T09:44:25.734Z,5388.75
2019-06-07T09:45:19.020Z,5546.25
2019-06-07T09:46:18.014Z,5186.25
2019-06-07T09:47:31.332Z,5135.62
2019-06-07T09:49:01.271Z,5630.62
2019-06-07T09:49:31.386Z,5698.12
2019-06-07T09:50:19.003Z,5827.50
2019-06-07T09:51:20.411Z,5985.00
2019-06-07T09:52:17.952Z,5776.88
2019-06-07T09:53:22.682Z,5641.88
2019-06-07T09:55:24.490Z,6013.12
2019-06-07T09:56:18.913Z,5883.75
2019-06-07T09:57:18.137Z,5962.50
2019-06-07T09:58:50.123Z,4443.75
2019-06-07T09:59:18.891Z,5090.62
2019-06-07T10:00:42.452Z,4483.12
2019-06-07T10:01:18.863Z,3993.75
2019-06-07T10:02:17.853Z,4078.12
2019-06-07T10:03:22.256Z,4972.50
2019-06-07T10:04:30.648Z,5653.12
2019-06-07T10:05:18.824Z,5816.25
2019-06-07T10:06:17.837Z,5889.38
2019-06-07T10:07:31.134Z,5793.75
2019-06-07T10:09:31.619Z,4803.75
2019-06-07T10:11:18.766Z,5619.38
2019-06-07T10:12:17.756Z,5445.00
2019-06-07T10:13:17.749Z,6018.75
2019-06-07T10:14:17.740Z,6181.88
2019-06-07T10:15:17.762Z,6046.88
2019-06-07T10:16:17.734Z,5782.50
2019-06-07T10:17:17.719Z,5670.00
2019-06-07T10:18:17.708Z,5861.25
2019-06-07T10:19:17.690Z,5985.00
2019-06-07T10:20:17.694Z,5928.75
2019-06-07T10:21:17.679Z,5838.75
2019-06-07T10:22:17.668Z,5771.25
2019-06-07T10:23:17.659Z,5895.00
2019-06-07T10:24:17.647Z,6120.00
2019-06-07T10:25:17.653Z,6142.50
2019-06-07T10:26:17.630Z,6041.25
2019-06-07T10:27:17.615Z,6316.88
2019-06-07T10:28:17.608Z,6035.62
2019-06-07T10:29:17.597Z,6069.38
2019-06-07T10:30:17.603Z,6322.50
2019-06-07T10:31:17.593Z,6232.50
2019-06-07T10:32:17.569Z,6001.88
2019-06-07T10:33:17.562Z,6148.12
2019-06-07T10:34:17.555Z,5923.12
2019-06-07T10:35:17.545Z,4876.88
2019-06-07T10:36:17.556Z,4539.38
2019-06-07T10:37:17.536Z,4657.50
2019-06-07T10:38:17.515Z,5467.50
2019-06-07T10:39:17.508Z,6041.25
2019-06-07T10:40:17.497Z,6080.62
2019-06-07T10:41:17.506Z,6198.75
2019-06-07T10:42:17.498Z,6260.62
2019-06-07T10:43:17.467Z,6148.12
2019-06-07T10:44:17.457Z,5985.00
2019-06-07T10:45:17.452Z,5945.62
2019-06-07T10:46:17.455Z,6063.75
2019-06-07T10:47:17.456Z,6221.25
2019-06-07T10:48:17.422Z,6255.00
2019-06-07T10:49:17.410Z,6238.12
2019-06-07T10:50:17.413Z,6108.75
2019-06-07T10:51:17.391Z,6108.75
2019-06-07T10:52:17.381Z,6097.50
2019-06-07T10:53:17.399Z,5906.25
2019-06-07T10:54:27.928Z,5883.75
2019-06-07T10:55:18.355Z,5985.00
2019-06-07T10:56:17.352Z,6001.88
2019-06-07T10:57:17.353Z,6108.75
2019-06-07T10:58:17.326Z,6091.88
2019-06-07T10:59:17.328Z,5478.75
2019-06-07T11:00:17.307Z,4860.00
2019-06-07T11:01:17.298Z,4545.00
2019-06-07T11:02:17.306Z,4348.12
2019-06-07T11:03:17.289Z,4320.00
2019-06-07T11:04:17.270Z,4691.25
2019-06-07T11:05:17.261Z,4359.38
2019-06-07T11:06:17.252Z,4280.62
2019-06-07T11:07:17.262Z,3853.12
2019-06-07T11:08:17.273Z,1912.50
2019-06-07T11:09:17.234Z,2199.38
2019-06-07T11:10:20.008Z,2559.38
2019-06-07T11:11:17.204Z,3060.00
2019-06-07T11:12:17.206Z,3397.50
2019-06-07T11:13:17.196Z,5068.12
2019-06-07T11:14:17.174Z,7267.50
2019-06-07T11:15:17.178Z,7003.12
2019-06-07T11:16:17.161Z,6733.12
2019-06-07T11:17:17.901Z,6502.50
2019-06-07T11:18:18.581Z,6316.88
2019-06-07T11:19:19.371Z,6238.12
2019-06-07T11:20:18.524Z,6288.75
2019-06-07T11:21:18.559Z,6238.12
2019-06-07T11:22:18.510Z,6159.38
2019-06-07T11:23:18.343Z,6232.50
2019-06-07T11:24:21.010Z,6536.25
2019-06-07T11:25:18.650Z,6778.12
2019-06-07T11:26:17.072Z,6716.25
2019-06-07T11:27:17.083Z,6654.38
2019-06-07T11:28:17.056Z,6705.00
2019-06-07T11:29:17.047Z,6733.12
2019-06-07T11:30:17.050Z,6705.00
2019-06-07T11:31:17.020Z,6665.62
2019-06-07T11:32:17.010Z,6570.00
2019-06-07T11:33:16.998Z,6553.12
2019-06-07T11:34:16.994Z,6142.50
2019-06-07T11:35:16.980Z,6401.25
2019-06-07T11:36:16.981Z,6418.12
2019-06-07T11:37:16.969Z,6609.38
2019-06-07T11:38:16.955Z,6688.12
2019-06-07T11:39:16.940Z,6699.38
2019-06-07T11:40:31.921Z,6592.50
2019-06-07T11:41:17.934Z,6429.38
2019-06-07T11:42:19.994Z,6480.00
2019-06-07T11:43:16.906Z,6468.75
2019-06-07T11:44:17.274Z,6226.88
2019-06-07T11:45:18.091Z,5968.12
2019-06-07T11:46:17.259Z,5816.25
2019-06-07T11:47:16.891Z,5945.62
2019-06-07T11:48:17.597Z,6226.88
2019-06-07T11:49:20.310Z,6153.75
2019-06-07T11:50:17.843Z,6238.12
2019-06-07T11:51:16.853Z,6204.38
2019-06-07T11:52:17.824Z,6030.00
2019-06-07T11:53:16.818Z,6075.00
2019-06-07T11:54:20.203Z,6035.62
2019-06-07T11:55:16.803Z,5985.00
2019-06-07T11:56:18.042Z,6142.50
2019-06-07T11:57:17.360Z,6159.38
2019-06-07T11:58:21.281Z,5962.50
2019-06-07T11:59:17.765Z,5821.88
2019-06-07T12:00:18.283Z,5833.12
2019-06-07T12:01:18.642Z,5793.75
2019-06-07T12:02:17.584Z,5675.62
2019-06-07T12:03:18.021Z,5737.50
2019-06-07T12:04:32.474Z,5962.50
2019-06-07T12:05:20.112Z,5923.12
2019-06-07T12:06:18.001Z,5726.25
2019-06-07T12:07:17.689Z,5670.00
2019-06-07T12:08:16.691Z,5630.62
2019-06-07T12:09:16.968Z,5625.00
2019-06-07T12:10:20.510Z,5574.38
2019-06-07T12:11:18.500Z,5411.25
2019-06-07T12:12:16.659Z,5343.75
2019-06-07T12:13:17.463Z,5371.88
2019-06-07T12:14:16.883Z,5591.25
2019-06-07T12:15:17.275Z,5670.00
2019-06-07T12:16:17.391Z,5557.50
2019-06-07T12:17:17.621Z,5540.62
2019-06-07T12:18:17.359Z,5546.25
2019-06-07T12:19:17.663Z,5490.00
2019-06-07T12:20:17.480Z,5709.38
2019-06-07T12:21:17.994Z,5731.88
2019-06-07T12:22:17.838Z,5681.25
2019-06-07T12:23:17.996Z,5630.62
2019-06-07T12:24:16.540Z,5608.12
2019-06-07T12:25:21.595Z,5653.12
2019-06-07T12:26:18.598Z,5551.88
2019-06-07T12:27:16.757Z,5540.62
2019-06-07T12:28:16.855Z,5563.12
2019-06-07T12:29:17.165Z,5495.62
2019-06-07T12:30:22.579Z,5405.62
2019-06-07T12:31:17.475Z,5551.88
2019-06-07T12:32:17.501Z,5664.38
2019-06-07T12:33:17.698Z,5343.75
2019-06-07T12:34:17.491Z,5191.88
2019-06-07T12:35:17.748Z,5141.25